Time;durP1;ratioP1;P1;durP2;ratioP2;P2;SDS_P1;SDS_P2;PMS_P1;PMS_P2;Temp;Humidity;BMP_temperature;BMP_pressure;BME280_temperature;BME280_humidity;BME280_pressure;Samples;Min_cycle;Max_cycle;Signal;HPM_P1;HPM_P2
2022/03/19 00:00:03;;;;;;;38.20;19.95;;;;;;;;;;4993993;28;20026;-50
2022/03/19 00:02:33;;;;;;;40.20;20.50;;;;;;;;;;4993948;28;20022;-52
2022/03/19 00:05:12;;;;;;;39.67;21.80;;;;;;;;;;4993640;28;20034;-56
2022/03/19 00:07:44;;;;;;;43.15;21.17;;;;;;;;;;4993584;28;20468;-54
2022/03/19 00:10:15;;;;;;;49.78;26.38;;;;;;;;;;4993498;28;20054;-55
2022/03/19 00:12:42;;;;;;;49.03;24.70;;;;;;;;;;4993610;28;20023;-51
2022/03/19 00:15:08;;;;;;;57.47;27.60;;;;;;;;;;4993874;28;20101;-52
2022/03/19 00:17:35;;;;;;;51.63;25.88;;;;;;;;;;4993839;28;20081;-55
2022/03/19 00:20:01;;;;;;;48.20;24.40;;;;;;;;;;4994116;28;20023;-52
2022/03/19 00:22:27;;;;;;;47.60;24.58;;;;;;;;;;4995725;28;20032;-51
2022/03/19 00:24:53;;;;;;;53.92;28.15;;;;;;;;;;4997500;28;20384;-56
2022/03/19 00:27:20;;;;;;;53.40;27.15;;;;;;;;;;4997623;28;20035;-54
2022/03/19 00:29:46;;;;;;;68.97;33.28;;;;;;;;;;4997956;28;20026;-53
2022/03/19 00:32:12;;;;;;;66.25;32.28;;;;;;;;;;4997676;28;20380;-56
2022/03/19 00:34:38;;;;;;;76.15;37.53;;;;;;;;;;4997955;28;20089;-55
2022/03/19 00:37:04;;;;;;;81.10;38.42;;;;;;;;;;4998251;28;20030;-58
2022/03/19 00:39:31;;;;;;;87.47;47.20;;;;;;;;;;4997441;28;20027;-53
2022/03/19 00:41:57;;;;;;;94.88;46.95;;;;;;;;;;4997860;28;20022;-56
2022/03/19 00:44:23;;;;;;;102.35;50.95;;;;;;;;;;4997770;28;20026;-55
2022/03/19 00:46:49;;;;;;;107.28;53.20;;;;;;;;;;4997440;28;20035;-56
2022/03/19 00:49:15;;;;;;;110.13;53.28;;;;;;;;;;4997683;28;20372;-55
2022/03/19 00:51:42;;;;;;;123.82;57.45;;;;;;;;;;4997630;28;20027;-55
2022/03/19 00:54:09;;;;;;;96.38;46.05;;;;;;;;;;4997321;28;20340;-55
2022/03/19 00:56:36;;;;;;;84.03;39.58;;;;;;;;;;4997198;28;20129;-54
2022/03/19 00:59:02;;;;;;;76.57;36.85;;;;;;;;;;4997261;28;20030;-52
2022/03/19 01:01:29;;;;;;;96.30;46.40;;;;;;;;;;4996899;28;20443;-55
2022/03/19 01:03:55;;;;;;;106.93;50.13;;;;;;;;;;4997361;28;20085;-53
2022/03/19 01:06:21;;;;;;;98.05;46.30;;;;;;;;;;4996934;28;20555;-53
2022/03/19 01:08:47;;;;;;;103.97;49.42;;;;;;;;;;4996931;28;20038;-53
2022/03/19 01:11:14;;;;;;;102.82;50.05;;;;;;;;;;4997325;28;20027;-56
2022/03/19 01:13:40;;;;;;;97.07;45.97;;;;;;;;;;4996649;28;20045;-55
2022/03/19 01:16:07;;;;;;;108.20;49.20;;;;;;;;;;4997128;28;20034;-51
2022/03/19 01:18:34;;;;;;;92.88;44.65;;;;;;;;;;4997197;28;20105;-53
2022/03/19 01:21:00;;;;;;;85.90;40.75;;;;;;;;;;4996505;28;20380;-49
2022/03/19 01:23:26;;;;;;;65.03;29.45;;;;;;;;;;4996783;28;20034;-53
2022/03/19 01:25:52;;;;;;;71.93;32.95;;;;;;;;;;4997118;28;20030;-50
2022/03/19 01:28:18;;;;;;;73.05;29.42;;;;;;;;;;4996694;28;20026;-51
2022/03/19 01:30:45;;;;;;;68.25;29.85;;;;;;;;;;4996929;28;20034;-49
2022/03/19 01:33:11;;;;;;;65.35;28.73;;;;;;;;;;4996780;28;20382;-49
2022/03/19 01:35:37;;;;;;;62.53;27.70;;;;;;;;;;4996248;28;20034;-50
2022/03/19 01:38:04;;;;;;;67.55;31.38;;;;;;;;;;4996833;28;20030;-50
2022/03/19 01:40:31;;;;;;;66.28;32.17;;;;;;;;;;4995492;28;20403;-49
2022/03/19 01:42:57;;;;;;;73.60;36.15;;;;;;;;;;4996445;28;20030;-51
2022/03/19 01:45:25;;;;;;;82.15;37.72;;;;;;;;;;4996556;28;20034;-50
2022/03/19 01:47:52;;;;;;;107.70;49.25;;;;;;;;;;4996272;28;20037;-50
2022/03/19 01:50:19;;;;;;;145.90;66.68;;;;;;;;;;4996219;28;20022;-49
2022/03/19 01:52:46;;;;;;;159.13;73.60;;;;;;;;;;4996256;28;20033;-50
2022/03/19 01:55:13;;;;;;;137.13;65.90;;;;;;;;;;4996498;28;20027;-50
2022/03/19 01:57:42;;;;;;;126.20;56.10;;;;;;;;;;4996337;28;20076;-49
2022/03/19 02:00:09;;;;;;;135.70;64.53;;;;;;;;;;4996048;28;20113;-51
2022/03/19 02:02:36;;;;;;;129.00;58.15;;;;;;;;;;4995684;28;20491;-48
2022/03/19 02:05:03;;;;;;;99.88;47.45;;;;;;;;;;4995987;28;20122;-49
2022/03/19 02:07:30;;;;;;;98.40;48.45;;;;;;;;;;4995847;28;20042;-51
2022/03/19 02:09:59;;;;;;;61.28;27.50;;;;;;;;;;4995600;28;20383;-49
2022/03/19 02:12:26;;;;;;;49.85;26.25;;;;;;;;;;4995924;28;20105;-50
2022/03/19 02:14:52;;;;;;;60.20;26.92;;;;;;;;;;4996103;28;20114;-49
2022/03/19 02:17:23;;;;;;;53.60;25.50;;;;;;;;;;4995779;28;20022;-52
2022/03/19 02:19:49;;;;;;;;;;;;;;;;;;4997006;28;20030;-51
2022/03/19 02:22:19;;;;;;;52.75;23.83;;;;;;;;;;4995990;28;19913;-51
2022/03/19 02:27:31;;;;;;;46.40;22.63;;;;;;;;;;4995649;28;20093;-51
2022/03/19 02:29:57;;;;;;;45.38;21.80;;;;;;;;;;4995139;28;20023;-52
2022/03/19 02:32:24;;;;;;;34.45;17.77;;;;;;;;;;4995418;28;20026;-50
2022/03/19 02:34:50;;;;;;;40.38;20.33;;;;;;;;;;4995882;28;20022;-51
2022/03/19 02:37:17;;;;;;;40.42;18.85;;;;;;;;;;4995909;28;20487;-49
2022/03/19 02:39:43;;;;;;;38.50;20.17;;;;;;;;;;4995365;28;20058;-49
2022/03/19 02:42:09;;;;;;;35.20;18.80;;;;;;;;;;4995583;28;20019;-51
2022/03/19 02:44:36;;;;;;;42.88;20.13;;;;;;;;;;4994684;28;20022;-49
2022/03/19 02:47:04;;;;;;;45.55;23.17;;;;;;;;;;4995327;28;20034;-49
2022/03/19 02:49:30;;;;;;;38.08;21.00;;;;;;;;;;4995501;28;20045;-49
2022/03/19 02:51:57;;;;;;;40.35;21.05;;;;;;;;;;4995128;28;20141;-51
2022/03/19 02:54:25;;;;;;;36.80;19.17;;;;;;;;;;4995473;28;20084;-49
2022/03/19 02:56:51;;;;;;;33.97;16.88;;;;;;;;;;4995278;28;20054;-51
2022/03/19 02:59:21;;;;;;;39.33;20.08;;;;;;;;;;4994947;28;20383;-51
2022/03/19 03:01:48;;;;;;;39.97;19.77;;;;;;;;;;4995201;28;20026;-48
2022/03/19 03:04:14;;;;;;;45.13;22.48;;;;;;;;;;4994921;28;20018;-49
2022/03/19 03:06:42;;;;;;;49.20;24.80;;;;;;;;;;4995055;28;20027;-52
2022/03/19 03:09:08;;;;;;;43.33;21.80;;;;;;;;;;4994729;28;20041;-50
2022/03/19 03:11:36;;;;;;;47.05;22.48;;;;;;;;;;4995035;28;20049;-49
2022/03/19 03:14:02;;;;;;;45.55;22.45;;;;;;;;;;4994704;28;20019;-51
2022/03/19 03:16:28;;;;;;;47.55;23.17;;;;;;;;;;4995090;28;20092;-50
2022/03/19 03:18:58;;;;;;;48.83;22.90;;;;;;;;;;4994934;28;20022;-51
2022/03/19 03:21:27;;;;;;;47.10;23.65;;;;;;;;;;4994850;28;20371;-50
2022/03/19 03:23:54;;;;;;;53.13;27.25;;;;;;;;;;4994699;28;20460;-49
2022/03/19 03:26:20;;;;;;;56.63;27.77;;;;;;;;;;4994791;28;20038;-55
2022/03/19 03:28:46;;;;;;;61.70;30.23;;;;;;;;;;4994507;28;20026;-51
2022/03/19 03:31:12;;;;;;;58.28;28.90;;;;;;;;;;4994654;28;20375;-54
2022/03/19 03:33:39;;;;;;;53.17;27.15;;;;;;;;;;4993193;28;20364;-53
2022/03/19 03:36:05;;;;;;;57.42;27.67;;;;;;;;;;4994611;28;20027;-54
2022/03/19 03:38:31;;;;;;;53.75;27.45;;;;;;;;;;4994700;28;20025;-53
2022/03/19 03:40:57;;;;;;;59.67;27.80;;;;;;;;;;4994045;28;20026;-53
2022/03/19 03:43:24;;;;;;;60.70;28.10;;;;;;;;;;4995384;28;20030;-52
2022/03/19 03:45:50;;;;;;;68.00;32.25;;;;;;;;;;4994743;28;20037;-49
2022/03/19 03:48:17;;;;;;;67.88;34.55;;;;;;;;;;4994094;28;20061;-51
2022/03/19 03:50:43;;;;;;;76.57;35.92;;;;;;;;;;4994195;28;20031;-51
2022/03/19 03:53:09;;;;;;;70.30;33.05;;;;;;;;;;4994466;28;20018;-50
2022/03/19 03:55:36;;;;;;;71.30;33.33;;;;;;;;;;4993978;28;20018;-53
2022/03/19 03:58:03;;;;;;;77.15;36.70;;;;;;;;;;4994258;28;20112;-53
2022/03/19 04:00:30;;;;;;;75.32;36.78;;;;;;;;;;4994326;28;20033;-53
2022/03/19 04:02:56;;;;;;;76.60;37.80;;;;;;;;;;4994244;28;20018;-55
2022/03/19 04:05:23;;;;;;;81.32;39.33;;;;;;;;;;4994327;28;20034;-52
2022/03/19 04:07:49;;;;;;;86.38;42.00;;;;;;;;;;4994202;28;20371;-56
2022/03/19 04:10:15;;;;;;;93.85;43.88;;;;;;;;;;4993878;28;20027;-53
2022/03/19 04:12:41;;;;;;;87.07;40.65;;;;;;;;;;4994192;28;20029;-52
2022/03/19 04:15:08;;;;;;;77.90;39.00;;;;;;;;;;4994342;28;20031;-53
2022/03/19 04:17:34;;;;;;;73.78;34.13;;;;;;;;;;4994267;28;20490;-53
2022/03/19 04:20:00;;;;;;;68.97;34.88;;;;;;;;;;4994197;28;20034;-54
2022/03/19 04:22:42;;;;;;;65.28;32.33;;;;;;;;;;4994205;28;20034;-54
2022/03/19 04:25:14;;;;;;;81.75;36.88;;;;;;;;;;4994500;28;20036;-50
2022/03/19 04:27:40;;;;;;;;;;;;;;;;;;4994495;28;20101;-52
2022/03/19 04:30:06;;;;;;;61.08;29.95;;;;;;;;;;4993472;28;19913;-53
2022/03/19 04:32:33;;;;;;;58.03;27.75;;;;;;;;;;4994816;28;20359;-52
2022/03/19 04:36:29;;;;;;;60.95;27.77;;;;;;;;;;4994072;28;20018;-53
2022/03/19 04:37:45;;;;;;;76.97;35.92;;;;;;;;;;4993203;28;20041;-51
2022/03/19 04:40:11;;;;;;;76.03;34.92;;;;;;;;;;4993911;28;20027;-52
2022/03/19 04:42:37;;;;;;;68.85;33.13;;;;;;;;;;4993896;28;20045;-52
2022/03/19 04:45:04;;;;;;;70.47;32.63;;;;;;;;;;4993689;28;20022;-49
2022/03/19 04:47:30;;;;;;;59.45;29.35;;;;;;;;;;4993908;28;20027;-51
2022/03/19 04:49:56;;;;;;;47.20;23.02;;;;;;;;;;4993918;28;20037;-49
2022/03/19 04:52:22;;;;;;;55.28;27.48;;;;;;;;;;4993287;28;20019;-51
2022/03/19 04:54:48;;;;;;;57.00;28.60;;;;;;;;;;4993842;28;20023;-48
2022/03/19 04:57:14;;;;;;;107.68;48.95;;;;;;;;;;4993822;28;20054;-51
2022/03/19 04:59:41;;;;;;;118.75;53.35;;;;;;;;;;4993184;28;20533;-52
2022/03/19 05:02:07;;;;;;;68.05;33.60;;;;;;;;;;4993805;28;20388;-53
2022/03/19 05:04:33;;;;;;;129.10;61.45;;;;;;;;;;4993153;28;20391;-52
2022/03/19 05:06:59;;;;;;;103.60;51.47;;;;;;;;;;4993620;28;20040;-51
2022/03/19 05:12:10;;;;;;;87.95;42.28;;;;;;;;;;4996750;28;20117;-52
2022/03/19 05:14:36;;;;;;;91.18;42.65;;;;;;;;;;4995957;28;20030;-52
2022/03/19 05:17:02;;;;;;;89.95;45.33;;;;;;;;;;4997197;28;20068;-49
2022/03/19 05:19:28;;;;;;;103.63;49.95;;;;;;;;;;4997246;28;20029;-52
2022/03/19 05:21:54;;;;;;;89.70;43.65;;;;;;;;;;4996839;28;20019;-54
2022/03/19 05:24:21;;;;;;;83.63;42.55;;;;;;;;;;4997072;28;20022;-53
2022/03/19 05:26:47;;;;;;;79.18;37.80;;;;;;;;;;4996642;28;20046;-55
2022/03/19 05:29:13;;;;;;;72.07;36.88;;;;;;;;;;4996998;28;20027;-56
2022/03/19 05:31:39;;;;;;;63.75;33.45;;;;;;;;;;4996940;28;20022;-51
2022/03/19 05:36:50;;;;;;;61.60;31.25;;;;;;;;;;4996589;28;20037;-50
2022/03/19 05:39:16;;;;;;;61.30;32.20;;;;;;;;;;4996550;28;20527;-50
2022/03/19 05:41:43;;;;;;;67.72;33.50;;;;;;;;;;4996103;28;20442;-49
2022/03/19 05:44:09;;;;;;;70.03;34.95;;;;;;;;;;4996317;28;20030;-53
2022/03/19 05:46:35;;;;;;;68.75;35.67;;;;;;;;;;4996152;28;20427;-53
2022/03/19 05:49:01;;;;;;;73.60;37.13;;;;;;;;;;4996198;28;20033;-52
2022/03/19 05:51:27;;;;;;;79.70;39.83;;;;;;;;;;4995582;28;20450;-52
2022/03/19 05:53:53;;;;;;;73.43;36.92;;;;;;;;;;4995886;28;20022;-54
2022/03/19 05:56:19;;;;;;;67.07;34.75;;;;;;;;;;4996184;28;20050;-51
2022/03/19 05:58:46;;;;;;;59.20;31.33;;;;;;;;;;4995751;28;20365;-53
2022/03/19 06:01:12;;;;;;;56.63;29.33;;;;;;;;;;4996390;28;20363;-51
2022/03/19 06:03:38;;;;;;;61.47;31.25;;;;;;;;;;4996068;28;20459;-53
2022/03/19 06:06:05;;;;;;;54.78;28.70;;;;;;;;;;4995967;28;20053;-53
2022/03/19 06:08:31;;;;;;;52.38;26.55;;;;;;;;;;4995859;28;20073;-50
2022/03/19 06:10:58;;;;;;;58.53;27.85;;;;;;;;;;4995984;28;20113;-53
2022/03/19 06:13:26;;;;;;;63.22;32.20;;;;;;;;;;4996077;28;20033;-49
2022/03/19 06:15:52;;;;;;;53.28;29.15;;;;;;;;;;4995710;28;20026;-53
2022/03/19 06:18:18;;;;;;;60.72;35.65;;;;;;;;;;4995674;28;20033;-59
2022/03/19 06:20:44;;;;;;;60.33;35.28;;;;;;;;;;4994706;28;20033;-51
2022/03/19 06:23:10;;;;;;;49.83;26.20;;;;;;;;;;4994640;28;20113;-54
2022/03/19 06:25:36;;;;;;;51.38;25.42;;;;;;;;;;4994068;28;20072;-54
2022/03/19 06:28:06;;;;;;;55.60;26.95;;;;;;;;;;4994621;28;20372;-52
2022/03/19 06:30:37;;;;;;;79.90;39.70;;;;;;;;;;4994261;28;20077;-53
2022/03/19 06:33:04;;;;;;;133.82;68.70;;;;;;;;;;4994324;28;20033;-51
2022/03/19 06:38:15;;;;;;;78.82;40.35;;;;;;;;;;4995121;28;20034;-51
2022/03/19 06:40:41;;;;;;;78.55;41.22;;;;;;;;;;4995652;28;20352;-54
2022/03/19 06:43:07;;;;;;;84.57;43.03;;;;;;;;;;4994793;28;20034;-55
2022/03/19 06:45:33;;;;;;;74.75;39.95;;;;;;;;;;4995510;28;20356;-53
2022/03/19 06:48:00;;;;;;;81.57;41.17;;;;;;;;;;4995132;28;20080;-53
2022/03/19 06:50:26;;;;;;;78.85;40.83;;;;;;;;;;4994857;28;20026;-54
2022/03/19 06:52:52;;;;;;;84.15;41.97;;;;;;;;;;4995604;28;20022;-55
2022/03/19 06:55:18;;;;;;;80.32;42.65;;;;;;;;;;4993562;28;20105;-54
2022/03/19 06:57:45;;;;;;;88.25;48.47;;;;;;;;;;4992685;28;20104;-53
2022/03/19 07:00:11;;;;;;;73.88;40.63;;;;;;;;;;4994833;28;20057;-55
2022/03/19 07:02:47;;;;;;;75.88;39.80;;;;;;;;;;4994414;28;20031;-51
2022/03/19 07:05:18;;;;;;;67.20;35.47;;;;;;;;;;4992799;28;20474;-53
2022/03/19 07:07:44;;;;;;;63.60;31.15;;;;;;;;;;4993206;28;20035;-54
2022/03/19 07:10:11;;;;;;;55.17;27.30;;;;;;;;;;4994446;28;20029;-52
2022/03/19 07:12:44;;;;;;;50.72;26.77;;;;;;;;;;4994173;28;20498;-53
2022/03/19 07:15:14;;;;;;;49.38;25.95;;;;;;;;;;4994952;28;20026;-53
2022/03/19 07:17:40;;;;;;;47.30;26.27;;;;;;;;;;4994645;28;20037;-54
2022/03/19 07:20:07;;;;;;;66.10;36.05;;;;;;;;;;4994959;28;20058;-56
2022/03/19 07:22:52;;;;;;;81.90;42.55;;;;;;;;;;4994932;28;20019;-52
2022/03/19 07:25:19;;;;;;;54.13;29.10;;;;;;;;;;4994215;28;20030;-52
2022/03/19 07:27:45;;;;;;;62.72;31.15;;;;;;;;;;4994618;28;20130;-55
2022/03/19 07:30:12;;;;;;;52.90;27.90;;;;;;;;;;4994676;28;20058;-53
2022/03/19 07:32:38;;;;;;;48.92;25.30;;;;;;;;;;4993867;28;20026;-54
2022/03/19 07:35:05;;;;;;;48.28;26.30;;;;;;;;;;4994163;28;20076;-54
2022/03/19 07:37:31;;;;;;;54.10;29.33;;;;;;;;;;4994723;28;20464;-54
2022/03/19 07:39:57;;;;;;;53.03;29.50;;;;;;;;;;4994336;28;20061;-52
2022/03/19 07:42:23;;;;;;;55.83;30.52;;;;;;;;;;4994143;28;20101;-59
2022/03/19 07:44:50;;;;;;;69.60;33.90;;;;;;;;;;4994060;28;20388;-51
2022/03/19 07:47:16;;;;;;;53.17;27.92;;;;;;;;;;4994277;28;20031;-54
2022/03/19 07:49:42;;;;;;;50.95;28.45;;;;;;;;;;4994542;28;20110;-52
2022/03/19 07:52:09;;;;;;;53.67;27.27;;;;;;;;;;4994360;28;20032;-51
2022/03/19 07:54:36;;;;;;;51.88;27.48;;;;;;;;;;4993991;28;20027;-55
2022/03/19 07:57:06;;;;;;;51.40;29.55;;;;;;;;;;4993856;28;20061;-49
2022/03/19 07:59:32;;;;;;;53.72;29.65;;;;;;;;;;4993258;28;20022;-52
2022/03/19 08:01:59;;;;;;;53.55;30.48;;;;;;;;;;4974773;28;20464;-53
2022/03/19 08:04:25;;;;;;;58.53;30.60;;;;;;;;;;4974871;28;20035;-51
2022/03/19 08:06:54;;;;;;;51.55;27.45;;;;;;;;;;4974202;28;20031;-52
2022/03/19 08:09:21;;;;;;;48.92;27.75;;;;;;;;;;4974544;28;20384;-51
2022/03/19 08:11:47;;;;;;;60.55;31.55;;;;;;;;;;4972488;28;20119;-51
2022/03/19 08:14:14;;;;;;;45.83;28.30;;;;;;;;;;4974344;28;20022;-53
2022/03/19 08:16:43;;;;;;;51.25;27.27;;;;;;;;;;4974663;28;20539;-51
2022/03/19 08:19:11;;;;;;;49.97;27.15;;;;;;;;;;4974782;28;20031;-52
2022/03/19 08:21:38;;;;;;;44.30;26.10;;;;;;;;;;4974456;28;20027;-53
2022/03/19 08:24:05;;;;;;;48.10;26.55;;;;;;;;;;4974612;28;20070;-54
2022/03/19 08:26:31;;;;;;;41.90;22.70;;;;;;;;;;4974803;28;20038;-51
2022/03/19 08:29:00;;;;;;;61.25;33.10;;;;;;;;;;4974158;28;20472;-50
2022/03/19 08:31:26;;;;;;;77.65;39.55;;;;;;;;;;4974634;28;20027;-49
2022/03/19 08:33:54;;;;;;;62.88;33.15;;;;;;;;;;4974546;28;20023;-49
2022/03/19 08:36:20;;;;;;;31.27;17.35;;;;;;;;;;4973804;28;20026;-49
2022/03/19 08:41:31;;;;;;;33.13;18.02;;;;;;;;;;4973007;28;20082;-50
2022/03/19 08:43:58;;;;;;;59.45;30.65;;;;;;;;;;4976666;28;20038;-48
2022/03/19 08:46:24;;;;;;;49.22;25.50;;;;;;;;;;4978298;28;20439;-50
2022/03/19 08:48:50;;;;;;;28.48;17.13;;;;;;;;;;4978171;28;20488;-50
2022/03/19 08:54:03;;;;;;;26.13;16.63;;;;;;;;;;4977821;28;20114;-54
2022/03/19 08:56:31;;;;;;;20.83;12.63;;;;;;;;;;4977646;28;20079;-53
2022/03/19 08:58:57;;;;;;;21.65;12.25;;;;;;;;;;4978044;28;20077;-53
2022/03/19 09:01:23;;;;;;;30.67;14.00;;;;;;;;;;4977109;28;20077;-52
2022/03/19 09:03:49;;;;;;;22.13;11.88;;;;;;;;;;4977586;28;20026;-50
2022/03/19 09:06:17;;;;;;;16.60;10.25;;;;;;;;;;4977361;28;20114;-51
2022/03/19 09:08:43;;;;;;;18.83;10.23;;;;;;;;;;4977043;28;20376;-53
2022/03/19 09:11:10;;;;;;;14.57;9.85;;;;;;;;;;4977248;28;20094;-51
2022/03/19 09:13:36;;;;;;;18.88;9.93;;;;;;;;;;4977506;28;20019;-50
2022/03/19 09:16:06;;;;;;;11.75;7.72;;;;;;;;;;4977471;28;20387;-53
2022/03/19 09:18:33;;;;;;;16.98;9.05;;;;;;;;;;4977360;28;20452;-48
2022/03/19 09:20:59;;;;;;;16.45;8.43;;;;;;;;;;4977386;28;20480;-52
2022/03/19 09:23:25;;;;;;;13.50;8.43;;;;;;;;;;4977726;28;20027;-50
2022/03/19 09:25:51;;;;;;;17.90;9.00;;;;;;;;;;4977007;28;20375;-49
2022/03/19 09:28:18;;;;;;;24.77;15.02;;;;;;;;;;4977514;28;20171;-51
2022/03/19 09:30:45;;;;;;;12.88;7.47;;;;;;;;;;4977146;28;20015;-49
2022/03/19 09:33:11;;;;;;;12.48;7.68;;;;;;;;;;4977165;28;20030;-47
2022/03/19 09:35:37;;;;;;;12.25;7.50;;;;;;;;;;4977038;28;20055;-46
2022/03/19 09:38:04;;;;;;;14.55;8.88;;;;;;;;;;4976877;28;20035;-50
2022/03/19 09:40:30;;;;;;;15.38;9.32;;;;;;;;;;4977070;28;20066;-46
2022/03/19 09:42:59;;;;;;;12.73;7.82;;;;;;;;;;4977476;28;20041;-52
2022/03/19 09:45:29;;;;;;;15.20;8.75;;;;;;;;;;4976907;28;20174;-53
2022/03/19 09:47:55;;;;;;;16.20;9.50;;;;;;;;;;4977581;28;20038;-49
2022/03/19 09:50:23;;;;;;;17.20;9.55;;;;;;;;;;4976827;28;20105;-49
2022/03/19 09:52:53;;;;;;;14.50;8.10;;;;;;;;;;4976374;28;20439;-49
2022/03/19 09:55:20;;;;;;;14.70;7.70;;;;;;;;;;4976001;28;20050;-52
2022/03/19 09:57:46;;;;;;;14.32;8.07;;;;;;;;;;4977042;28;20066;-54
2022/03/19 10:00:13;;;;;;;15.75;8.43;;;;;;;;;;4976652;28;20023;-52
2022/03/19 10:02:51;;;;;;;14.77;8.38;;;;;;;;;;4976974;28;20082;-54
2022/03/19 10:10:48;;;;;;;18.40;10.57;;;;;;;;;;4976946;28;20042;-50
2022/03/19 10:13:15;;;;;;;13.93;8.38;;;;;;;;;;4976441;28;20022;-50
2022/03/19 10:15:41;;;;;;;10.45;6.82;;;;;;;;;;4976310;28;20026;-51
2022/03/19 10:18:11;;;;;;;11.95;7.75;;;;;;;;;;4976276;28;20499;-53
2022/03/19 10:20:37;;;;;;;16.63;10.30;;;;;;;;;;4976299;28;20029;-50
2022/03/19 10:23:04;;;;;;;18.92;10.27;;;;;;;;;;4976130;28;20548;-52
2022/03/19 10:25:31;;;;;;;14.40;8.38;;;;;;;;;;4976640;28;20376;-54
2022/03/19 10:28:01;;;;;;;15.50;9.10;;;;;;;;;;4976054;28;20038;-48
2022/03/19 10:30:34;;;;;;;16.70;9.65;;;;;;;;;;4976399;28;20037;-55
2022/03/19 10:33:00;;;;;;;14.38;8.35;;;;;;;;;;4976681;28;20031;-52
2022/03/19 10:35:31;;;;;;;19.23;11.73;;;;;;;;;;4975732;28;20065;-50
2022/03/19 10:37:58;;;;;;;14.85;9.43;;;;;;;;;;4976288;28;20189;-50
2022/03/19 10:40:36;;;;;;;23.88;14.05;;;;;;;;;;4975957;28;20027;-50
2022/03/19 10:43:02;;;;;;;16.23;9.60;;;;;;;;;;4976168;28;20023;-50
2022/03/19 10:45:28;;;;;;;10.95;7.97;;;;;;;;;;4976657;28;20348;-50
2022/03/19 10:47:54;;;;;;;19.73;12.10;;;;;;;;;;4975689;28;20424;-50
2022/03/19 10:50:22;;;;;;;12.30;9.10;;;;;;;;;;4976027;28;20089;-51
2022/03/19 10:52:49;;;;;;;12.10;8.52;;;;;;;;;;4975982;28;20027;-53
2022/03/19 10:55:15;;;;;;;14.98;8.75;;;;;;;;;;4975593;28;20078;-51
2022/03/19 10:57:42;;;;;;;23.73;15.07;;;;;;;;;;4976112;28;20058;-51
2022/03/19 11:00:13;;;;;;;33.42;20.90;;;;;;;;;;4975725;28;20029;-46
2022/03/19 11:02:47;;;;;;;18.25;12.35;;;;;;;;;;4975795;28;20019;-48
2022/03/19 11:05:14;;;;;;;16.27;9.75;;;;;;;;;;4975418;28;20023;-49
2022/03/19 11:07:42;;;;;;;16.98;10.20;;;;;;;;;;4975713;28;20031;-47
2022/03/19 11:10:08;;;;;;;13.27;8.95;;;;;;;;;;4975286;28;20023;-50
2022/03/19 11:12:35;;;;;;;25.63;15.50;;;;;;;;;;4975921;28;20026;-49
2022/03/19 11:15:03;;;;;;;21.67;14.52;;;;;;;;;;4975570;28;20025;-49
2022/03/19 11:17:32;;;;;;;19.05;12.65;;;;;;;;;;4973994;28;20500;-49
2022/03/19 11:20:00;;;;;;;11.82;7.40;;;;;;;;;;4975158;28;20030;-51
2022/03/19 11:22:28;;;;;;;12.77;8.63;;;;;;;;;;4975281;28;20034;-51
2022/03/19 11:25:30;;;;;;;12.85;7.97;;;;;;;;;;4975081;28;20074;-51
2022/03/19 11:28:22;;;;;;;13.95;9.40;;;;;;;;;;4915325;29;20047;-50
2022/03/19 11:31:04;;;;;;;13.77;9.27;;;;;;;;;;4978860;28;20042;-54
2022/03/19 11:33:31;;;;;;;10.55;7.85;;;;;;;;;;4992050;28;20022;-57
2022/03/19 11:36:03;;;;;;;18.83;12.55;;;;;;;;;;4991795;28;20034;-49
2022/03/19 11:38:30;;;;;;;13.07;9.10;;;;;;;;;;4991556;28;20022;-50
2022/03/19 11:40:58;;;;;;;10.43;7.15;;;;;;;;;;4992152;28;20031;-53
2022/03/19 11:43:27;;;;;;;12.80;9.35;;;;;;;;;;4989784;28;20037;-47
2022/03/19 11:45:54;;;;;;;11.63;7.43;;;;;;;;;;4991684;28;20072;-51
2022/03/19 11:48:38;;;;;;;28.08;21.95;;;;;;;;;;4990995;28;20365;-49
2022/03/19 11:51:17;;;;;;;9.20;6.97;;;;;;;;;;4981226;28;20065;-51
2022/03/19 11:54:03;;;;;;;11.75;8.05;;;;;;;;;;4989242;28;20391;-50
2022/03/19 11:56:41;;;;;;;14.98;9.30;;;;;;;;;;4991137;28;20054;-50
2022/03/19 11:59:32;;;;;;;9.45;6.63;;;;;;;;;;4989328;28;20051;-50
2022/03/19 12:02:09;;;;;;;12.00;6.68;;;;;;;;;;4991451;28;20475;-53
2022/03/19 12:04:56;;;;;;;11.13;7.60;;;;;;;;;;4990962;28;20046;-48
2022/03/19 12:07:41;;;;;;;13.10;8.75;;;;;;;;;;4992764;28;20169;-53
2022/03/19 12:10:10;;;;;;;16.75;10.57;;;;;;;;;;4990477;28;20018;-53
2022/03/19 12:12:37;;;;;;;15.13;8.65;;;;;;;;;;4992532;28;20080;-51
2022/03/19 12:15:23;;;;;;;26.52;15.05;;;;;;;;;;4992552;28;20026;-51
2022/03/19 12:17:49;;;;;;;10.95;7.80;;;;;;;;;;4980026;28;20110;-51
2022/03/19 12:20:15;;;;;;;11.50;8.18;;;;;;;;;;4996430;28;20506;-54
2022/03/19 12:22:42;;;;;;;13.82;10.20;;;;;;;;;;4996576;28;20472;-52
2022/03/19 12:25:16;;;;;;;9.90;8.20;;;;;;;;;;4996514;28;20022;-48
2022/03/19 12:27:45;;;;;;;13.38;10.15;;;;;;;;;;4997460;28;20034;-53
2022/03/19 12:30:11;;;;;;;13.27;9.50;;;;;;;;;;4997911;28;20069;-52
2022/03/19 12:32:49;;;;;;;21.65;16.10;;;;;;;;;;4997858;28;20085;-55
2022/03/19 12:35:16;;;;;;;14.85;9.63;;;;;;;;;;4997645;28;20113;-53
2022/03/19 12:37:52;;;;;;;19.08;11.60;;;;;;;;;;4998063;28;20460;-50
2022/03/19 12:40:19;;;;;;;12.23;8.52;;;;;;;;;;4996931;28;20033;-52
2022/03/19 12:42:51;;;;;;;10.50;7.65;;;;;;;;;;4996066;28;20390;-47
2022/03/19 12:45:18;;;;;;;13.00;8.40;;;;;;;;;;4996905;28;20109;-49
2022/03/19 12:47:44;;;;;;;27.77;19.10;;;;;;;;;;4997166;28;20088;-53
2022/03/19 12:50:10;;;;;;;14.50;9.48;;;;;;;;;;4997379;28;20463;-50
2022/03/19 12:52:43;;;;;;;14.55;9.30;;;;;;;;;;4996896;28;20034;-51
2022/03/19 12:55:18;;;;;;;10.32;8.18;;;;;;;;;;4997198;28;20501;-52
2022/03/19 12:57:53;;;;;;;10.00;7.80;;;;;;;;;;4998238;28;20510;-51
2022/03/19 13:00:19;;;;;;;10.75;7.53;;;;;;;;;;4997410;28;20072;-48
2022/03/19 13:02:53;;;;;;;11.02;8.50;;;;;;;;;;4997377;28;20105;-53
2022/03/19 13:05:19;;;;;;;11.25;8.23;;;;;;;;;;4996936;28;20030;-52
2022/03/19 13:08:07;;;;;;;11.65;8.93;;;;;;;;;;4996283;28;20336;-47
2022/03/19 13:10:46;;;;;;;13.07;9.30;;;;;;;;;;4994015;28;20058;-52
2022/03/19 13:13:14;;;;;;;15.02;9.95;;;;;;;;;;4997297;28;20021;-50
2022/03/19 13:15:50;;;;;;;12.00;8.68;;;;;;;;;;4996082;28;20081;-50
2022/03/19 13:18:27;;;;;;;11.38;8.52;;;;;;;;;;4994112;28;20030;-51
2022/03/19 13:21:08;;;;;;;13.95;9.93;;;;;;;;;;4996503;28;20472;-52
2022/03/19 13:23:35;;;;;;;13.90;9.00;;;;;;;;;;4996428;28;20085;-47
2022/03/19 13:26:02;;;;;;;17.02;10.07;;;;;;;;;;4995704;28;20026;-54
2022/03/19 13:28:29;;;;;;;13.30;10.07;;;;;;;;;;4996055;28;20078;-52
2022/03/19 13:30:56;;;;;;;12.40;9.20;;;;;;;;;;4996628;28;20130;-53
2022/03/19 13:33:22;;;;;;;12.75;9.70;;;;;;;;;;4996285;28;20084;-51
2022/03/19 13:35:50;;;;;;;11.23;8.32;;;;;;;;;;4996436;28;20104;-50
2022/03/19 13:38:17;;;;;;;11.93;8.80;;;;;;;;;;4996590;28;20030;-54
2022/03/19 13:40:44;;;;;;;14.63;8.98;;;;;;;;;;4996359;28;20464;-51
2022/03/19 13:43:10;;;;;;;11.07;9.02;;;;;;;;;;4995471;28;20543;-49
2022/03/19 13:45:37;;;;;;;9.65;7.35;;;;;;;;;;4996201;28;20357;-54
2022/03/19 13:48:03;;;;;;;11.45;8.15;;;;;;;;;;4995929;28;20033;-54
2022/03/19 13:50:30;;;;;;;14.07;10.18;;;;;;;;;;4995434;28;20050;-52
2022/03/19 13:52:57;;;;;;;11.70;8.90;;;;;;;;;;4995484;28;20416;-49
2022/03/19 13:55:23;;;;;;;12.13;9.10;;;;;;;;;;4994230;28;20053;-53
2022/03/19 13:57:50;;;;;;;11.30;8.07;;;;;;;;;;4994574;28;20112;-50
2022/03/19 14:00:22;;;;;;;10.20;7.60;;;;;;;;;;4994236;28;20030;-48
2022/03/19 14:02:54;;;;;;;15.00;9.45;;;;;;;;;;4994318;28;20034;-49
2022/03/19 14:05:24;;;;;;;14.60;8.68;;;;;;;;;;4995332;28;20029;-48
2022/03/19 14:07:53;;;;;;;15.38;10.52;;;;;;;;;;4995635;28;20034;-51
2022/03/19 14:10:19;;;;;;;12.15;8.65;;;;;;;;;;4996765;28;20030;-52
2022/03/19 14:12:46;;;;;;;8.73;6.63;;;;;;;;;;4994980;28;20031;-52
2022/03/19 14:15:17;;;;;;;7.53;5.20;;;;;;;;;;4995997;28;20030;-54
2022/03/19 14:17:58;;;;;;;8.95;7.00;;;;;;;;;;4995114;28;20026;-52
2022/03/19 14:20:25;;;;;;;;;;;;;;;;;;4997278;28;20034;-52
2022/03/19 14:22:52;;;;;;;14.35;10.60;;;;;;;;;;4995818;28;19912;-53
2022/03/19 14:25:19;;;;;;;22.30;15.65;;;;;;;;;;4994267;28;20023;-53
2022/03/19 14:27:46;;;;;;;14.15;10.18;;;;;;;;;;4995535;28;20519;-51
2022/03/19 14:30:15;;;;;;;15.80;10.85;;;;;;;;;;4995779;28;20042;-54
2022/03/19 14:32:41;;;;;;;13.55;9.18;;;;;;;;;;4995519;28;20072;-51
2022/03/19 14:35:28;;;;;;;18.33;12.13;;;;;;;;;;4995510;28;20157;-52
2022/03/19 14:37:54;;;;;;;25.15;13.77;;;;;;;;;;4985444;28;20037;-52
2022/03/19 14:40:20;;;;;;;14.65;9.80;;;;;;;;;;4994476;28;20019;-53
2022/03/19 14:42:46;;;;;;;14.23;9.35;;;;;;;;;;4995071;28;20037;-53
2022/03/19 14:45:12;;;;;;;11.30;8.13;;;;;;;;;;4994187;28;20023;-53
2022/03/19 14:47:39;;;;;;;9.93;7.68;;;;;;;;;;4995127;28;20042;-52